You are listening to:
RJTT ATIS - Tokyo, Japan

RJTT 051600Z 01010KT 9999 FEW020 BKN030 10/04 Q1031 NOSIG RMK 1CU020 7SC030 A3045

If stream doesn't start automatically press the play button
If stream stops then reload player then press play